• Join FlightAware (Why Join?)
  • Login
  • US Flag 
01:12PM EDT


 

Airport Tracker/Info


-or-


 

Live Flight TrackerFlight Track Log ✈ AWE2690 ✈ 09-Sep-2013 ✈ KIAD - KCLT

Flight Track Log - Related Links

Times and Time Zones

All times are in EDT time to prevent confusion due to time zone crossing. See the AWE2690 flight status page for this flight to view local times or setup timezone preferences in your user account.

Time Position Orientation Groundspeed Altitude Reporting Facility
EDT Latitude Longitude Course Direction KTS MPH feet Rate Location/Type
11:52AM 38.8389 -77.4386 233° Southwest 223 257 4,600  Level Washington Center
11:53AM 38.7592 -77.4606 192° South 242 278 7,700 2,700 Climbing Washington Center
11:54AM 38.6635 -77.7414 224° Southwest  Level Estimated
11:54AM 38.6797 -77.4850 194° South 274 315 10,000  Level Washington Center
11:55AM 38.5924 -77.8114 238° Southwest  Level Estimated
11:55AM 38.5978 -77.5097 193° South 292 336 10,900  Level Washington Center
11:56AM 38.5213 -77.8812 226° Southwest  Level Estimated
11:56AM 38.5183 -77.5342 194° South 301 346 12,800  Level Washington Center
11:57AM 38.4501 -77.9510 233° Southwest  Level Estimated
11:57AM 38.4261 -77.5608 193° South 314 361 14,100  Level Washington Center
11:58AM 38.3497 -77.6408 219° Southwest 341 392 16,200 1,980 Climbing Washington Center
11:59AM 38.2833 -77.7422 230° Southwest 353 406 18,100 1,860 Climbing Washington Center
12:00PM 38.2125 -77.8486 230° Southwest 373 429 19,900 1,800 Climbing Washington Center
12:01PM 38.1417 -77.9572 230° Southwest 395 455 21,800 1,560 Climbing Washington Center
12:02PM 38.0686 -78.0683 230° Southwest 410 472 23,100 1,380 Climbing Washington Center
12:03PM 37.9950 -78.1844 231° Southwest 416 479 24,600 1,380 Climbing Washington Center
12:04PM 37.9239 -78.2900 230° Southwest 421 484 26,000 1,140 Climbing Washington Center
12:05PM 37.8442 -78.4056 229° Southwest 433 498 27,000 960 Climbing Washington Center
12:06PM 37.7578 -78.5311 229° Southwest 453 521 28,000 480 Climbing Washington Center
12:07PM 37.6606 -78.6664 228° Southwest 476 548 28,000  Level Washington Center
12:08PM 37.5717 -78.7911 228° Southwest 481 554 28,000  Level Washington Center
12:09PM 37.4828 -78.9156 228° Southwest 481 554 28,000  Level Washington Center
12:10PM 37.3936 -79.0397 228° Southwest 481 554 28,000  Level Washington Center
12:11PM 37.3025 -79.1664 228° Southwest 481 554 28,000  Level Washington Center
12:12PM 37.2117 -79.2689 222° Southwest 486 559 28,000  Level Washington Center
12:13PM 37.0981 -79.3625 213° Southwest 486 559 28,000  Level Washington Center
12:14PM 36.9867 -79.4611 215° Southwest 491 565 28,000  Level Washington Center
12:15PM 36.8731 -79.5514 212° Southwest 491 565 28,000 -60 Level Washington Center
12:17PM 36.6339 -79.7444 213° Southwest 492 566 27,900 -540 Descending Atlanta Center
12:18PM 36.5242 -79.8331 213° Southwest 485 558 26,500 -1,020 Descending Atlanta Center
12:19PM 36.4208 -79.9158 213° Southwest 471 542 25,900 -1,500 Descending Atlanta Center
12:20PM 36.3356 -79.9847 213° Southwest 435 501 23,600 -1,920 Descending Atlanta Center
12:21PM 36.2442 -80.0639 215° Southwest 418 481 22,100 -1,560 Descending Atlanta Center
12:22PM 36.1550 -80.1428 216° Southwest 406 467 20,500 -1,620 Descending Atlanta Center
12:23PM 36.0697 -80.2164 215° Southwest 395 455 18,900 -1,680 Descending Atlanta Center
12:24PM 35.9803 -80.2897 214° Southwest 376 433 17,200 -1,620 Descending Atlanta Center
12:25PM 35.9336 -80.3331 217° Southwest 342 394 16,300 -1,500 Descending Atlanta Center
12:25PM 35.9031 -80.3600 216° Southwest 360 414 15,700 -1,440 Descending Atlanta Center
12:26PM 35.8258 -80.4275 215° Southwest 320 368 14,300 -1,380 Descending Atlanta Center
12:27PM 35.7731 -80.4758 217° Southwest 295 339 13,200 -1,740 Descending Atlanta Center
12:27PM 35.7628 -80.4842 213° Southwest 317 365 12,700 -2,220 Descending Atlanta Center
12:28PM 35.7108 -80.5631 231° Southwest 298 343 10,700 -1,920 Descending Atlanta Center
12:29PM 35.6586 -80.6419 231° Southwest 298 343 8,900 -1,740 Descending Atlanta Center
12:30PM 35.6228 -80.6972 231° Southwest 289 333 7,700 -1,740 Descending Atlanta Center
12:30PM 35.6086 -80.7131 222° Southwest 293 337 7,200 -1,920 Descending Atlanta Center
12:31PM 35.5686 -80.7783 233° Southwest 277 319 5,800 -1,500 Descending Atlanta Center
12:31PM 35.5644 -80.7786 183° South 288 331 5,700 -1,680 Descending Atlanta Center
12:32PM 35.5203 -80.8467 231° Southwest 277 319 4,100 -1,740 Descending Atlanta Center
12:32PM 35.5142 -80.8494 200° South 288 331 4,000 -300 Descending Atlanta Center
12:33PM 35.4544 -80.8875 207° Southwest 262 302 3,800 -420 Descending Atlanta Center
12:33PM 35.4483 -80.8903 200° South 268 308 3,600 -720 Descending Atlanta Center
12:34PM 35.3825 -80.9258 204° Southwest 255 293 3,000 -600 Descending Atlanta Center
12:34PM 35.3844 -80.9233 46° Northeast 257 296 3,000 -180 Level Atlanta Center
12:35PM 35.3247 -80.9483 199° South 174 200 2,800 -540 Descending Atlanta Center
12:36PM 35.2808 -80.9425 174° South 144 166 1,900 -840 Descending Atlanta Center
12:37PM 35.2431 -80.9414 179° South 145 167 1,200 -780 Descending Atlanta Center
12:39PM 35.2137 -80.9491 219° Southwest  Level Estimated
12:46PM 35.2137 -80.9491 219° Southwest  Level Estimated